ASA2125 KLAX-KPHX
Flight info
| Callsign | ASA2125 |
|---|---|
| Flight time | 0h 55m |
| Altitude | 35000 |
| Route | DOTSS2 CNERY BLH HYDRR1 |
| Aircraft | B739/M-SDE2E3FGHIRWXY/LB1 |
Departure
| Time | 2026-04-26 02:19 |
|---|---|
| Airport | Los Angeles International Airport (KLAX) |
Arrival
| Time | 2026-04-26 03:14 |
|---|---|
| Airport | Phoenix Sky Harbor International Airport (KPHX) |
| Time | Latitude | Longitude | Altitude | Speed | Heading |
|---|---|---|---|---|---|
| 2026-04-26 01:55 | 33.94044 | -118.40258 | 121 ft | 0 kts | 84° |
| 2026-04-26 02:08 | 33.94044 | -118.40259 | 125 ft | 1 kts | 84° |
| 2026-04-26 02:09 | 33.94042 | -118.40276 | 120 ft | 3 kts | 85° |
| 2026-04-26 02:09 | 33.94041 | -118.40293 | 123 ft | 3 kts | 98° |
| 2026-04-26 02:09 | 33.94045 | -118.40310 | 122 ft | 3 kts | 153° |
| 2026-04-26 02:09 | 33.94051 | -118.40313 | 123 ft | 0 kts | 174° |
| 2026-04-26 02:13 | 33.94017 | -118.40309 | 121 ft | 15 kts | 173° |
| 2026-04-26 02:13 | 33.93905 | -118.40292 | 122 ft | 16 kts | 168° |
| 2026-04-26 02:13 | 33.93855 | -118.40229 | 125 ft | 10 kts | 85° |
| 2026-04-26 02:13 | 33.93866 | -118.40115 | 122 ft | 20 kts | 83° |
| 2026-04-26 02:14 | 33.93886 | -118.39925 | 125 ft | 24 kts | 83° |
| 2026-04-26 02:14 | 33.93906 | -118.39731 | 125 ft | 23 kts | 83° |
| 2026-04-26 02:14 | 33.93925 | -118.39545 | 125 ft | 22 kts | 83° |
| 2026-04-26 02:14 | 33.93943 | -118.39363 | 123 ft | 21 kts | 83° |
| 2026-04-26 02:15 | 33.93962 | -118.39187 | 124 ft | 21 kts | 83° |
| 2026-04-26 02:15 | 33.93980 | -118.39017 | 125 ft | 20 kts | 83° |
| 2026-04-26 02:15 | 33.93996 | -118.38851 | 125 ft | 20 kts | 83° |
| 2026-04-26 02:15 | 33.94011 | -118.38690 | 121 ft | 19 kts | 83° |
| 2026-04-26 02:16 | 33.94028 | -118.38535 | 122 ft | 18 kts | 83° |
| 2026-04-26 02:16 | 33.94043 | -118.38385 | 121 ft | 18 kts | 83° |
| 2026-04-26 02:16 | 33.94058 | -118.38241 | 125 ft | 17 kts | 83° |
| 2026-04-26 02:16 | 33.94072 | -118.38103 | 125 ft | 16 kts | 83° |
| 2026-04-26 02:17 | 33.94072 | -118.38035 | 125 ft | 0 kts | 108° |
| 2026-04-26 02:17 | 33.94058 | -118.38015 | 123 ft | 11 kts | 141° |
| 2026-04-26 02:18 | 33.93984 | -118.38044 | 125 ft | 13 kts | 256° |
| 2026-04-26 02:18 | 33.93964 | -118.38226 | 123 ft | 47 kts | 263° |
| 2026-04-26 02:18 | 33.93898 | -118.38882 | 125 ft | 108 kts | 263° |
| 2026-04-26 02:18 | 33.93782 | -118.39985 | 125 ft | 154 kts | 261° |
| 2026-04-26 02:19 | 33.93649 | -118.41394 | 360 ft | 174 kts | 264° |
| 2026-04-26 02:19 | 33.93542 | -118.42830 | 1019 ft | 175 kts | 264° |
| 2026-04-26 02:19 | 33.93397 | -118.44250 | 1702 ft | 172 kts | 263° |
| 2026-04-26 02:19 | 33.93236 | -118.45753 | 2021 ft | 193 kts | 260° |
| 2026-04-26 02:20 | 33.92748 | -118.47351 | 2201 ft | 215 kts | 233° |
| 2026-04-26 02:20 | 33.91544 | -118.48478 | 2587 ft | 231 kts | 202° |
| 2026-04-26 02:20 | 33.89966 | -118.48872 | 3216 ft | 235 kts | 191° |
| 2026-04-26 02:20 | 33.88275 | -118.49147 | 3555 ft | 254 kts | 191° |
| 2026-04-26 02:21 | 33.86499 | -118.49422 | 4199 ft | 260 kts | 191° |
| 2026-04-26 02:21 | 33.84687 | -118.49702 | 4914 ft | 264 kts | 191° |
| 2026-04-26 02:21 | 33.82868 | -118.49985 | 5688 ft | 265 kts | 191° |
| 2026-04-26 02:21 | 33.81044 | -118.50272 | 6360 ft | 269 kts | 191° |
| 2026-04-26 02:22 | 33.79161 | -118.50568 | 7107 ft | 270 kts | 191° |
| 2026-04-26 02:22 | 33.77292 | -118.50868 | 7818 ft | 271 kts | 192° |
| 2026-04-26 02:22 | 33.75434 | -118.51171 | 8505 ft | 274 kts | 192° |
| 2026-04-26 02:22 | 33.73538 | -118.51476 | 9218 ft | 276 kts | 191° |
| 2026-04-26 02:23 | 33.71604 | -118.51478 | 9878 ft | 286 kts | 171° |
| 2026-04-26 02:23 | 33.69776 | -118.50401 | 10323 ft | 307 kts | 144° |
| 2026-04-26 02:23 | 33.68456 | -118.48251 | 10455 ft | 337 kts | 115° |
| 2026-04-26 02:23 | 33.67647 | -118.45518 | 10631 ft | 358 kts | 110° |
| 2026-04-26 02:24 | 33.66859 | -118.42600 | 10770 ft | 376 kts | 110° |
| 2026-04-26 02:24 | 33.66002 | -118.39557 | 10901 ft | 393 kts | 111° |
| 2026-04-26 02:24 | 33.65094 | -118.36403 | 11108 ft | 406 kts | 110° |
| 2026-04-26 02:24 | 33.64473 | -118.33080 | 11621 ft | 412 kts | 99° |
| 2026-04-26 02:25 | 33.64338 | -118.29617 | 12063 ft | 419 kts | 91° |
| 2026-04-26 02:25 | 33.64366 | -118.26098 | 12556 ft | 424 kts | 91° |
| 2026-04-26 02:25 | 33.64405 | -118.22547 | 13062 ft | 428 kts | 91° |
| 2026-04-26 02:25 | 33.64436 | -118.18957 | 13568 ft | 433 kts | 91° |
| 2026-04-26 02:26 | 33.64455 | -118.15325 | 14040 ft | 437 kts | 92° |
| 2026-04-26 02:26 | 33.64463 | -118.11663 | 14562 ft | 440 kts | 92° |
| 2026-04-26 02:26 | 33.64463 | -118.07977 | 15106 ft | 443 kts | 92° |
| 2026-04-26 02:26 | 33.64460 | -118.04275 | 15638 ft | 446 kts | 93° |
| 2026-04-26 02:27 | 33.64455 | -118.00541 | 16144 ft | 449 kts | 93° |
| 2026-04-26 02:27 | 33.64448 | -117.96772 | 16654 ft | 452 kts | 94° |
| 2026-04-26 02:27 | 33.64441 | -117.92986 | 17002 ft | 453 kts | 94° |
| 2026-04-26 02:27 | 33.64436 | -117.89226 | 16994 ft | 448 kts | 94° |
| 2026-04-26 02:28 | 33.64428 | -117.85478 | 17015 ft | 451 kts | 94° |
| 2026-04-26 02:28 | 33.64406 | -117.81706 | 17018 ft | 452 kts | 96° |
| 2026-04-26 02:28 | 33.64083 | -117.77976 | 17033 ft | 449 kts | 106° |
| 2026-04-26 02:28 | 33.63247 | -117.74377 | 17432 ft | 448 kts | 112° |
| 2026-04-26 02:29 | 33.62323 | -117.70813 | 18119 ft | 446 kts | 112° |
| 2026-04-26 02:29 | 33.61426 | -117.67301 | 18619 ft | 447 kts | 112° |
| 2026-04-26 02:29 | 33.60520 | -117.63711 | 19021 ft | 452 kts | 112° |
| 2026-04-26 02:29 | 33.59602 | -117.60036 | 19368 ft | 457 kts | 112° |
| 2026-04-26 02:30 | 33.58701 | -117.56405 | 19708 ft | 462 kts | 112° |
| 2026-04-26 02:30 | 33.57783 | -117.52694 | 20092 ft | 466 kts | 112° |
| 2026-04-26 02:30 | 33.56856 | -117.48945 | 20478 ft | 470 kts | 113° |
| 2026-04-26 02:30 | 33.55920 | -117.45166 | 20773 ft | 475 kts | 112° |
| 2026-04-26 02:31 | 33.54972 | -117.41349 | 21115 ft | 480 kts | 113° |
| 2026-04-26 02:31 | 33.54434 | -117.39181 | 21331 ft | 481 kts | 113° |
| 2026-04-26 02:31 | 33.53176 | -117.34123 | 21707 ft | 487 kts | 113° |
| 2026-04-26 02:31 | 33.52203 | -117.30222 | 22031 ft | 490 kts | 113° |
| 2026-04-26 02:32 | 33.51226 | -117.26304 | 22362 ft | 493 kts | 112° |
| 2026-04-26 02:32 | 33.50466 | -117.22256 | 22661 ft | 504 kts | 104° |
| 2026-04-26 02:32 | 33.50258 | -117.19460 | 22860 ft | 512 kts | 97° |
| 2026-04-26 02:32 | 33.50205 | -117.13705 | 23205 ft | 519 kts | 95° |
| 2026-04-26 02:33 | 33.50203 | -117.09367 | 23468 ft | 523 kts | 95° |
| 2026-04-26 02:33 | 33.50199 | -117.06482 | 23657 ft | 525 kts | 95° |
| 2026-04-26 02:33 | 33.50177 | -117.02100 | 23935 ft | 527 kts | 96° |
| 2026-04-26 02:33 | 33.50136 | -116.97710 | 24219 ft | 528 kts | 96° |
| 2026-04-26 02:34 | 33.50079 | -116.93302 | 24513 ft | 530 kts | 96° |
| 2026-04-26 02:34 | 33.50012 | -116.88879 | 24774 ft | 533 kts | 97° |
| 2026-04-26 02:34 | 33.49940 | -116.84441 | 25073 ft | 531 kts | 96° |
| 2026-04-26 02:34 | 33.49870 | -116.80024 | 25536 ft | 529 kts | 96° |
| 2026-04-26 02:35 | 33.49797 | -116.75595 | 25701 ft | 534 kts | 96° |
| 2026-04-26 02:35 | 33.49720 | -116.71127 | 25830 ft | 538 kts | 96° |
| 2026-04-26 02:35 | 33.49644 | -116.66629 | 26049 ft | 541 kts | 96° |
| 2026-04-26 02:35 | 33.49567 | -116.62121 | 26288 ft | 542 kts | 97° |
| 2026-04-26 02:36 | 33.49490 | -116.57603 | 26605 ft | 542 kts | 97° |
| 2026-04-26 02:36 | 33.49411 | -116.53085 | 26908 ft | 540 kts | 97° |
| 2026-04-26 02:36 | 33.49332 | -116.48610 | 27470 ft | 535 kts | 97° |
| 2026-04-26 02:36 | 33.49251 | -116.44160 | 27848 ft | 535 kts | 97° |
| 2026-04-26 02:37 | 33.49168 | -116.39688 | 28123 ft | 538 kts | 97° |
| 2026-04-26 02:37 | 33.49098 | -116.35210 | 28383 ft | 540 kts | 97° |
| 2026-04-26 02:37 | 33.49036 | -116.30704 | 28795 ft | 539 kts | 97° |
| 2026-04-26 02:37 | 33.48974 | -116.26221 | 29273 ft | 537 kts | 97° |
| 2026-04-26 02:38 | 33.48907 | -116.21795 | 29501 ft | 541 kts | 98° |
| 2026-04-26 02:38 | 33.48833 | -116.17205 | 29620 ft | 546 kts | 98° |
| 2026-04-26 02:38 | 33.48759 | -116.12651 | 29946 ft | 546 kts | 98° |
| 2026-04-26 02:38 | 33.48696 | -116.08175 | 30339 ft | 545 kts | 96° |
| 2026-04-26 02:39 | 33.48949 | -116.03633 | 30707 ft | 551 kts | 87° |
| 2026-04-26 02:39 | 33.49703 | -115.99111 | 30995 ft | 557 kts | 77° |
| 2026-04-26 02:39 | 33.50951 | -115.94692 | 31251 ft | 561 kts | 72° |
| 2026-04-26 02:39 | 33.52307 | -115.90296 | 31438 ft | 564 kts | 72° |
| 2026-04-26 02:40 | 33.53677 | -115.85877 | 31612 ft | 567 kts | 72° |
| 2026-04-26 02:40 | 33.55026 | -115.81442 | 31937 ft | 566 kts | 73° |
| 2026-04-26 02:40 | 33.56342 | -115.77006 | 32317 ft | 564 kts | 73° |
| 2026-04-26 02:40 | 33.57630 | -115.72578 | 32783 ft | 560 kts | 74° |
| 2026-04-26 02:41 | 33.58904 | -115.68161 | 33028 ft | 562 kts | 74° |
| 2026-04-26 02:41 | 33.61463 | -115.59308 | 33727 ft | 555 kts | 73° |
| 2026-04-26 02:41 | 33.62621 | -115.54922 | 34230 ft | 546 kts | 81° |
| 2026-04-26 02:42 | 33.63294 | -115.50485 | 34556 ft | 538 kts | 89° |
| 2026-04-26 02:42 | 33.63474 | -115.46037 | 34753 ft | 530 kts | 99° |
| 2026-04-26 02:42 | 33.63235 | -115.41632 | 34782 ft | 531 kts | 101° |
| 2026-04-26 02:43 | 33.62410 | -115.28354 | 34793 ft | 531 kts | 101° |
| 2026-04-26 02:43 | 33.61938 | -115.19567 | 34781 ft | 530 kts | 101° |
| 2026-04-26 02:44 | 33.61483 | -115.10765 | 34770 ft | 528 kts | 101° |
| 2026-04-26 02:44 | 33.61017 | -115.01921 | 34776 ft | 527 kts | 101° |
| 2026-04-26 02:45 | 33.60546 | -114.93208 | 34760 ft | 527 kts | 101° |
| 2026-04-26 02:45 | 33.60062 | -114.84367 | 34779 ft | 529 kts | 101° |
| 2026-04-26 02:46 | 33.59552 | -114.75545 | 34782 ft | 530 kts | 104° |
| 2026-04-26 02:46 | 33.58114 | -114.66981 | 34561 ft | 526 kts | 113° |
| 2026-04-26 02:47 | 33.57197 | -114.62745 | 33849 ft | 534 kts | 114° |
| 2026-04-26 02:47 | 33.56266 | -114.58466 | 33213 ft | 529 kts | 113° |
| 2026-04-26 02:47 | 33.55367 | -114.54196 | 32288 ft | 530 kts | 112° |
| 2026-04-26 02:47 | 33.54487 | -114.49881 | 31355 ft | 533 kts | 111° |
| 2026-04-26 02:48 | 33.53633 | -114.45560 | 30453 ft | 533 kts | 111° |
| 2026-04-26 02:48 | 33.52788 | -114.41232 | 29512 ft | 533 kts | 110° |
| 2026-04-26 02:48 | 33.51947 | -114.36907 | 28462 ft | 533 kts | 110° |
| 2026-04-26 02:48 | 33.51105 | -114.32593 | 27472 ft | 532 kts | 110° |
| 2026-04-26 02:49 | 33.50259 | -114.28281 | 26450 ft | 531 kts | 110° |
| 2026-04-26 02:49 | 33.49410 | -114.23975 | 25466 ft | 531 kts | 110° |
| 2026-04-26 02:49 | 33.48581 | -114.19765 | 25404 ft | 509 kts | 110° |
| 2026-04-26 02:49 | 33.47779 | -114.15699 | 25142 ft | 494 kts | 110° |
| 2026-04-26 02:50 | 33.46995 | -114.11755 | 24941 ft | 479 kts | 110° |
| 2026-04-26 02:50 | 33.46232 | -114.07924 | 24737 ft | 466 kts | 111° |
| 2026-04-26 02:50 | 33.45484 | -114.04197 | 24456 ft | 455 kts | 110° |
| 2026-04-26 02:50 | 33.44752 | -114.00557 | 24194 ft | 446 kts | 111° |
| 2026-04-26 02:51 | 33.44029 | -113.96970 | 23953 ft | 441 kts | 111° |
| 2026-04-26 02:51 | 33.43308 | -113.93403 | 23715 ft | 441 kts | 111° |
| 2026-04-26 02:51 | 33.42589 | -113.89835 | 23445 ft | 441 kts | 110° |
| 2026-04-26 02:51 | 33.41870 | -113.86262 | 23112 ft | 442 kts | 110° |
| 2026-04-26 02:52 | 33.41161 | -113.82739 | 22812 ft | 441 kts | 110° |
| 2026-04-26 02:52 | 33.40444 | -113.79174 | 22520 ft | 439 kts | 110° |
| 2026-04-26 02:52 | 33.39731 | -113.75633 | 22229 ft | 437 kts | 110° |
| 2026-04-26 02:52 | 33.39014 | -113.72111 | 21908 ft | 434 kts | 110° |
| 2026-04-26 02:53 | 33.38305 | -113.68610 | 21663 ft | 431 kts | 109° |
| 2026-04-26 02:53 | 33.37604 | -113.65128 | 21389 ft | 429 kts | 110° |
| 2026-04-26 02:53 | 33.36903 | -113.61665 | 21113 ft | 428 kts | 110° |
| 2026-04-26 02:53 | 33.36201 | -113.58212 | 20823 ft | 426 kts | 110° |
| 2026-04-26 02:54 | 33.35501 | -113.54778 | 20544 ft | 424 kts | 110° |
| 2026-04-26 02:54 | 33.34805 | -113.51363 | 20261 ft | 421 kts | 110° |
| 2026-04-26 02:54 | 33.34111 | -113.47965 | 19977 ft | 419 kts | 110° |
| 2026-04-26 02:54 | 33.33430 | -113.44583 | 19695 ft | 417 kts | 108° |
| 2026-04-26 02:55 | 33.32826 | -113.41199 | 19378 ft | 416 kts | 107° |
| 2026-04-26 02:55 | 33.32261 | -113.37813 | 19100 ft | 414 kts | 107° |
| 2026-04-26 02:55 | 33.31703 | -113.34448 | 18833 ft | 411 kts | 107° |
| 2026-04-26 02:55 | 33.31138 | -113.31103 | 18568 ft | 409 kts | 107° |
| 2026-04-26 02:56 | 33.30569 | -113.27790 | 18368 ft | 404 kts | 107° |
| 2026-04-26 02:56 | 33.30002 | -113.24521 | 18182 ft | 400 kts | 107° |
| 2026-04-26 02:56 | 33.29449 | -113.21271 | 17924 ft | 398 kts | 105° |
| 2026-04-26 02:56 | 33.28978 | -113.18011 | 17648 ft | 398 kts | 104° |
| 2026-04-26 02:57 | 33.28539 | -113.14799 | 17357 ft | 395 kts | 104° |
| 2026-04-26 02:57 | 33.28098 | -113.11571 | 17100 ft | 392 kts | 104° |
| 2026-04-26 02:57 | 33.27658 | -113.08359 | 16826 ft | 391 kts | 104° |
| 2026-04-26 02:57 | 33.27212 | -113.05154 | 16548 ft | 392 kts | 104° |
| 2026-04-26 02:58 | 33.26766 | -113.01933 | 16318 ft | 394 kts | 102° |
| 2026-04-26 02:58 | 33.26853 | -112.98647 | 16052 ft | 400 kts | 80° |
| 2026-04-26 02:58 | 33.27466 | -112.95416 | 15836 ft | 397 kts | 81° |
| 2026-04-26 02:58 | 33.27876 | -112.92163 | 15575 ft | 395 kts | 88° |
| 2026-04-26 02:59 | 33.28036 | -112.88911 | 15322 ft | 388 kts | 92° |
| 2026-04-26 02:59 | 33.28069 | -112.85728 | 15068 ft | 379 kts | 93° |
| 2026-04-26 02:59 | 33.28074 | -112.82607 | 14827 ft | 371 kts | 94° |
| 2026-04-26 02:59 | 33.28184 | -112.79560 | 14588 ft | 365 kts | 88° |
| 2026-04-26 03:00 | 33.28454 | -112.76564 | 14353 ft | 359 kts | 86° |
| 2026-04-26 03:00 | 33.28766 | -112.73634 | 14130 ft | 352 kts | 85° |
| 2026-04-26 03:00 | 33.29073 | -112.70760 | 13911 ft | 346 kts | 86° |
| 2026-04-26 03:00 | 33.29367 | -112.67915 | 13691 ft | 343 kts | 86° |
| 2026-04-26 03:01 | 33.29645 | -112.65099 | 13456 ft | 340 kts | 86° |
| 2026-04-26 03:01 | 33.29914 | -112.62301 | 13222 ft | 337 kts | 86° |
| 2026-04-26 03:01 | 33.30175 | -112.59534 | 12997 ft | 333 kts | 87° |
| 2026-04-26 03:01 | 33.30431 | -112.56791 | 12759 ft | 331 kts | 87° |
| 2026-04-26 03:02 | 33.30683 | -112.54072 | 12535 ft | 328 kts | 87° |
| 2026-04-26 03:02 | 33.30933 | -112.51371 | 12324 ft | 326 kts | 87° |
| 2026-04-26 03:02 | 33.31181 | -112.48669 | 12125 ft | 327 kts | 87° |
| 2026-04-26 03:02 | 33.31430 | -112.45957 | 11926 ft | 330 kts | 87° |
| 2026-04-26 03:03 | 33.31681 | -112.43231 | 11700 ft | 330 kts | 87° |
| 2026-04-26 03:03 | 33.31930 | -112.40509 | 11474 ft | 328 kts | 87° |
| 2026-04-26 03:03 | 33.32178 | -112.37804 | 11272 ft | 327 kts | 87° |
| 2026-04-26 03:03 | 33.32423 | -112.35109 | 11062 ft | 325 kts | 86° |
| 2026-04-26 03:04 | 33.32666 | -112.32422 | 10847 ft | 324 kts | 86° |
| 2026-04-26 03:04 | 33.32910 | -112.29763 | 10553 ft | 321 kts | 86° |
| 2026-04-26 03:04 | 33.33150 | -112.27145 | 10403 ft | 312 kts | 86° |
| 2026-04-26 03:04 | 33.33384 | -112.24593 | 10193 ft | 305 kts | 86° |
| 2026-04-26 03:05 | 33.33607 | -112.22138 | 10006 ft | 300 kts | 87° |
| 2026-04-26 03:05 | 33.33829 | -112.19670 | 9818 ft | 298 kts | 86° |
| 2026-04-26 03:05 | 33.34050 | -112.17222 | 9593 ft | 294 kts | 86° |
| 2026-04-26 03:05 | 33.34268 | -112.14797 | 9286 ft | 293 kts | 87° |
| 2026-04-26 03:06 | 33.34486 | -112.12375 | 8971 ft | 291 kts | 87° |
| 2026-04-26 03:06 | 33.34701 | -112.09975 | 8669 ft | 289 kts | 87° |
| 2026-04-26 03:06 | 33.34827 | -112.07586 | 8371 ft | 286 kts | 93° |
| 2026-04-26 03:06 | 33.34785 | -112.05221 | 8065 ft | 283 kts | 95° |
| 2026-04-26 03:07 | 33.34719 | -112.02875 | 7798 ft | 282 kts | 95° |
| 2026-04-26 03:07 | 33.34667 | -112.00534 | 7505 ft | 281 kts | 95° |
| 2026-04-26 03:07 | 33.34627 | -111.98203 | 7198 ft | 280 kts | 94° |
| 2026-04-26 03:07 | 33.34594 | -111.95880 | 6897 ft | 279 kts | 94° |
| 2026-04-26 03:08 | 33.34563 | -111.93574 | 6604 ft | 274 kts | 94° |
| 2026-04-26 03:08 | 33.34524 | -111.91338 | 6276 ft | 263 kts | 95° |
| 2026-04-26 03:08 | 33.34481 | -111.89195 | 5873 ft | 253 kts | 94° |
| 2026-04-26 03:08 | 33.34447 | -111.87115 | 5430 ft | 247 kts | 93° |
| 2026-04-26 03:09 | 33.34438 | -111.85102 | 5009 ft | 244 kts | 91° |
| 2026-04-26 03:09 | 33.34455 | -111.83118 | 4758 ft | 234 kts | 90° |
| 2026-04-26 03:09 | 33.34819 | -111.81266 | 4467 ft | 227 kts | 59° |
| 2026-04-26 03:09 | 33.35914 | -111.80013 | 4211 ft | 216 kts | 22° |
| 2026-04-26 03:10 | 33.37352 | -111.79770 | 4086 ft | 211 kts | 346° |
| 2026-04-26 03:10 | 33.38621 | -111.80569 | 4045 ft | 205 kts | 310° |
| 2026-04-26 03:10 | 33.39445 | -111.81933 | 4035 ft | 198 kts | 301° |
| 2026-04-26 03:10 | 33.40075 | -111.83299 | 3993 ft | 175 kts | 288° |
| 2026-04-26 03:11 | 33.40462 | -111.84642 | 3774 ft | 175 kts | 287° |
| 2026-04-26 03:11 | 33.40864 | -111.86105 | 4195 ft | 184 kts | 286° |
| 2026-04-26 03:11 | 33.41233 | -111.87560 | 4474 ft | 183 kts | 282° |
| 2026-04-26 03:11 | 33.41549 | -111.89092 | 3710 ft | 199 kts | 286° |
| 2026-04-26 03:12 | 33.41998 | -111.90600 | 3455 ft | 178 kts | 288° |
| 2026-04-26 03:12 | 33.42290 | -111.91972 | 3122 ft | 165 kts | 281° |
| 2026-04-26 03:12 | 33.42523 | -111.93339 | 2663 ft | 171 kts | 281° |
| 2026-04-26 03:12 | 33.42733 | -111.94789 | 2157 ft | 180 kts | 279° |
| 2026-04-26 03:13 | 33.42859 | -111.96248 | 1784 ft | 172 kts | 273° |
| 2026-04-26 03:13 | 33.42888 | -111.97624 | 1577 ft | 162 kts | 271° |
| 2026-04-26 03:13 | 33.42879 | -111.98916 | 1400 ft | 148 kts | 272° |
| 2026-04-26 03:13 | 33.42883 | -112.00089 | 1169 ft | 134 kts | 270° |
| 2026-04-26 03:14 | 33.42887 | -112.01153 | 1136 ft | 112 kts | 269° |
| 2026-04-26 03:14 | 33.42886 | -112.01893 | 1127 ft | 60 kts | 269° |
| 2026-04-26 03:14 | 33.42938 | -112.02144 | 1123 ft | 15 kts | 308° |
| 2026-04-26 03:14 | 33.42949 | -112.02163 | 1120 ft | 0 kts | 308° |
| 2026-04-26 03:15 | 33.42964 | -112.02185 | 1118 ft | 13 kts | 305° |
| 2026-04-26 03:15 | 33.42997 | -112.02352 | 1121 ft | 22 kts | 270° |
| 2026-04-26 03:16 | 33.43015 | -112.02520 | 1120 ft | 18 kts | 314° |
| 2026-04-26 03:16 | 33.43129 | -112.02546 | 1120 ft | 17 kts | 359° |
| 2026-04-26 03:16 | 33.43154 | -112.02549 | 1122 ft | 0 kts | 354° |
| 2026-04-26 03:17 | 33.43179 | -112.02541 | 1121 ft | 14 kts | 25° |
| 2026-04-26 03:17 | 33.43216 | -112.02387 | 1128 ft | 27 kts | 89° |
| 2026-04-26 03:17 | 33.43216 | -112.02150 | 1132 ft | 28 kts | 90° |
| 2026-04-26 03:18 | 33.43216 | -112.01924 | 1120 ft | 26 kts | 90° |
| 2026-04-26 03:18 | 33.43216 | -112.01714 | 1121 ft | 25 kts | 92° |
| 2026-04-26 03:18 | 33.43215 | -112.01516 | 1128 ft | 23 kts | 89° |
| 2026-04-26 03:18 | 33.43216 | -112.01327 | 1125 ft | 22 kts | 91° |
| 2026-04-26 03:19 | 33.43215 | -112.01144 | 1129 ft | 22 kts | 90° |
| 2026-04-26 03:19 | 33.43215 | -112.00966 | 1129 ft | 21 kts | 92° |
| 2026-04-26 03:19 | 33.43215 | -112.00793 | 1130 ft | 20 kts | 90° |
| 2026-04-26 03:19 | 33.43215 | -112.00624 | 1131 ft | 20 kts | 90° |
| 2026-04-26 03:20 | 33.43241 | -112.00478 | 1131 ft | 16 kts | 32° |
| 2026-04-26 03:20 | 33.43311 | -112.00470 | 1130 ft | 15 kts | 1° |
| 2026-04-26 03:20 | 33.43415 | -112.00469 | 1130 ft | 15 kts | 359° |
| 2026-04-26 03:20 | 33.43538 | -112.00470 | 1132 ft | 22 kts | 360° |
| 2026-04-26 03:21 | 33.43748 | -112.00469 | 1132 ft | 22 kts | 359° |
| 2026-04-26 03:21 | 33.43885 | -112.00490 | 1133 ft | 18 kts | 314° |
| 2026-04-26 03:21 | 33.43902 | -112.00634 | 1130 ft | 17 kts | 270° |
| 2026-04-26 03:21 | 33.43902 | -112.00777 | 1130 ft | 17 kts | 271° |
| 2026-04-26 03:22 | 33.43901 | -112.00863 | 1130 ft | 15 kts | 270° |
| 2026-04-26 03:22 | 33.43897 | -112.00983 | 1130 ft | 14 kts | 248° |
| 2026-04-26 03:22 | 33.43819 | -112.01019 | 1131 ft | 10 kts | 161° |
| 2026-04-26 03:22 | 33.43790 | -112.00958 | 1130 ft | 9 kts | 102° |
| 2026-04-26 03:23 | 33.43787 | -112.00940 | 1130 ft | 0 kts | 102° |